METAR Data
IDs: Format: Raw Decoded Include TAF

Data at: 1108 UTC 07 Dec 2022

PAIN 071056Z AUTO 35005KT 2SM -SN BR FEW006 BKN021 OVC028 M04/M05 A2944 RMK AO2 SLP004 P0000 T10391050 FZRANO